Terminal Aerodrome Forecast
Issued by NWS Kansas City/Pleasant Hill, MO

Home | Current Version | Previous Version | Text Only | Print | Product List | Glossary On
Versions: 1 2 3 4 5 6 7 8 9 10 11 12 13 14 15 16 17 18 19 20 21 22
000
FTUS43 KEAX 240700 AAA
TAFMCI
TAF AMD
KMCI 240703Z 2407/2506 34012KT 6SM -RASN BR OVC008
      TEMPO 2410/2414 4SM -SN BR
     FM241600 33014KT P6SM OVC014
     FM242000 32010KT P6SM OVC022
     FM250300 23007KT P6SM FEW025=

USA.gov is the U.S. government's official web portal to all federal, state and local government web resources and services.